Time;durP1;ratioP1;P1;durP2;ratioP2;P2;SDS_P1;SDS_P2;PMS_P1;PMS_P2;Temp;Humidity;BMP_temperature;BMP_pressure;BME280_temperature;BME280_humidity;BME280_pressure;Samples;Min_cycle;Max_cycle;Signal;HPM_P1;HPM_P2
2021/04/14 00:00:38;;;;;;;5.45;2.40;;;;;;;1.40;75.68;97595.03;4941846;28;20222;-94
2021/04/14 00:03:08;;;;;;;8.32;2.92;;;;;;;1.77;75.68;97650.22;4950618;28;20175;-95
2021/04/14 00:05:39;;;;;;;2.80;2.17;;;;;;;1.71;75.73;97650.28;4940622;28;20278;-94
2021/04/14 00:08:08;;;;;;;6.38;2.55;;;;;;;1.66;75.79;97638.38;4942787;28;20183;-96
2021/04/14 00:10:37;;;;;;;8.45;2.60;;;;;;;0.10;75.90;97388.84;4941524;28;20199;-95
2021/04/14 00:13:06;;;;;;;6.40;2.55;;;;;;;1.65;75.69;97647.78;4939758;28;20267;-95
2021/04/14 00:15:37;;;;;;;6.40;1.90;;;;;;;-0.91;75.34;97239.69;4970488;28;20268;-96
2021/04/14 00:18:06;;;;;;;3.00;1.70;;;;;;;-0.79;75.42;97266.03;4964140;28;20605;-96
2021/04/14 00:20:34;;;;;;;4.85;2.00;;;;;;;0.73;76.13;97526.50;4948932;28;20202;-96
2021/04/14 00:23:03;;;;;;;6.88;2.03;;;;;;;0.62;76.24;97487.34;4949069;28;20188;-96
2021/04/14 00:25:34;;;;;;;8.02;2.20;;;;;;;1.08;76.39;97566.31;4952047;28;20187;-94
2021/04/14 00:28:02;;;;;;;5.85;2.58;;;;;;;1.52;76.83;97625.69;4945251;28;20661;-96
2021/04/14 00:30:30;;;;;;;4.85;2.60;;;;;;;1.49;76.39;97633.41;4945703;28;20184;-96
2021/04/14 00:32:58;;;;;;;8.85;2.67;;;;;;;0.18;76.01;97400.72;4945249;28;20203;-96
2021/04/14 00:35:28;;;;;;;2.47;1.83;;;;;;;1.42;75.87;97606.13;4947263;28;20207;-96
2021/04/14 00:37:56;;;;;;;5.90;2.30;;;;;;;1.63;75.76;97648.69;4946626;28;20199;-96
2021/04/14 00:40:27;;;;;;;3.60;1.90;;;;;;;1.13;75.71;97550.91;4945112;28;20705;-96
2021/04/14 00:42:55;;;;;;;3.17;1.80;;;;;;;1.33;75.95;97601.09;4945058;28;20219;-96
2021/04/14 00:45:22;;;;;;;3.45;2.22;;;;;;;1.49;75.83;97605.19;4945164;28;20207;-95
2021/04/14 00:47:55;;;;;;;4.97;2.10;;;;;;;-0.17;75.64;97331.97;4953740;28;20180;-96
2021/04/14 00:50:29;;;;;;;2.10;1.42;;;;;;;-0.24;75.75;97340.56;4929319;29;20738;-96
2021/04/14 00:52:57;;;;;;;5.55;2.08;;;;;;;-0.98;75.91;97230.41;4951571;29;20218;-96
2021/04/14 00:55:27;;;;;;;4.75;2.20;;;;;;;-0.08;75.52;97359.16;4932793;29;20210;-96
2021/04/14 00:57:55;;;;;;;4.40;1.92;;;;;;;1.25;76.32;97614.88;4934265;29;20207;-96
2021/04/14 01:00:31;;;;;;;3.28;2.15;;;;;;;-0.07;76.00;97360.84;4928652;29;20287;-96
2021/04/14 01:02:59;;;;;;;5.43;2.05;;;;;;;0.64;76.20;97503.53;4930450;29;20184;-96
2021/04/14 01:05:27;;;;;;;4.53;2.05;;;;;;;0.48;75.86;97495.16;4943875;29;20291;-96
2021/04/14 01:07:56;;;;;;;3.58;1.52;;;;;;;0.51;76.42;97515.59;4930389;29;20201;-96
2021/04/14 01:10:24;;;;;;;4.13;1.50;;;;;;;-0.58;76.90;97351.88;4949719;28;20210;-96
2021/04/14 01:12:52;;;;;;;2.67;1.55;;;;;;;0.32;77.33;97462.84;4949883;28;20243;-96
2021/04/14 01:15:23;;;;;;;3.97;1.60;;;;;;;0.20;77.05;97441.63;4951159;28;20294;-96
2021/04/14 01:17:51;;;;;;;4.38;1.80;;;;;;;1.21;77.28;97593.53;4980062;23;20236;-40
2021/04/14 01:20:19;;;;;;;4.38;1.83;;;;;;;1.24;77.09;97598.63;4952009;28;20658;-40
2021/04/14 01:23:07;;;;;;;4.30;2.08;;;;;;;1.16;77.18;97599.56;4939251;28;20226;-40
2021/04/14 01:25:49;;;;;;;10.07;2.55;;;;;;;1.06;77.20;97592.81;4937145;28;20659;-36
2021/04/14 01:28:19;;;;;;;1.98;1.45;;;;;;;1.07;77.40;97605.63;4955122;28;20378;-43
2021/04/14 01:30:47;;;;;;;5.30;2.42;;;;;;;0.97;77.48;97592.91;4956441;28;20867;-36
2021/04/14 01:33:15;;;;;;;4.20;1.50;;;;;;;0.85;76.99;97608.38;4954704;28;20677;-36
2021/04/14 01:35:43;;;;;;;5.25;1.88;;;;;;;0.55;76.96;97575.31;4954457;28;20295;-36
2021/04/14 01:38:12;;;;;;;4.30;2.13;;;;;;;0.52;76.92;97573.63;4956125;28;20836;-42
2021/04/14 01:40:40;;;;;;;6.05;2.00;;;;;;;0.60;77.01;97596.63;4938192;28;20199;-36
2021/04/14 01:43:34;;;;;;;5.07;2.17;;;;;;;0.57;77.22;97602.63;4957573;28;20178;-37
2021/04/14 01:46:04;;;;;;;3.50;1.90;;;;;;;0.58;77.64;97606.88;4964586;28;20198;-42
2021/04/14 01:48:33;;;;;;;3.13;2.10;;;;;;;0.57;78.29;97597.50;4946447;28;20305;-42
2021/04/14 01:51:04;;;;;;;8.20;2.58;;;;;;;0.54;77.99;97599.25;4939419;28;20621;-41
2021/04/14 01:53:32;;;;;;;5.07;1.80;;;;;;;0.47;78.28;97597.56;4945464;28;20218;-41
2021/04/14 01:56:01;;;;;;;6.60;2.70;;;;;;;0.57;78.42;97597.50;4964596;28;20194;-42
2021/04/14 01:58:30;;;;;;;5.78;3.22;;;;;;;0.62;78.36;97593.22;4946120;28;20312;-43
2021/04/14 02:01:00;;;;;;;4.57;1.85;;;;;;;0.62;77.99;97595.78;4963693;28;20587;-36
2021/04/14 02:03:30;;;;;;;2.40;1.40;;;;;;;0.60;78.68;97589.78;4954541;28;20608;-36
2021/04/14 02:05:57;;;;;;;5.38;1.52;;;;;;;0.57;78.05;97586.41;4945605;28;20210;-43
2021/04/14 02:08:24;;;;;;;2.92;1.67;;;;;;;0.61;78.74;97594.03;4963821;28;20700;-36
2021/04/14 02:10:53;;;;;;;5.53;1.92;;;;;;;0.53;78.73;97590.69;4959493;28;20186;-36
2021/04/14 02:13:27;;;;;;;2.90;1.60;;;;;;;0.63;78.67;97596.59;4966063;28;20611;-36
2021/04/14 02:15:55;;;;;;;3.50;1.40;;;;;;;0.47;78.50;97554.88;4959197;28;20688;-42
2021/04/14 02:18:22;;;;;;;9.73;2.28;;;;;;;0.53;78.35;97565.09;4963505;28;20672;-36
2021/04/14 02:20:50;;;;;;;8.68;1.60;;;;;;;0.66;78.04;97592.31;4966569;28;20645;-46
2021/04/14 02:23:20;;;;;;;4.53;2.10;;;;;;;0.58;78.11;97583.84;4960461;28;20222;-38
2021/04/14 02:25:48;;;;;;;9.15;1.55;;;;;;;0.65;78.26;97595.72;4949180;28;20593;-37
2021/04/14 02:28:17;;;;;;;4.20;1.52;;;;;;;0.56;78.36;97577.88;4961609;28;20689;-44
2021/04/14 02:30:48;;;;;;;3.05;1.38;;;;;;;0.44;78.50;97587.38;4965743;28;20486;-39
2021/04/14 02:33:15;;;;;;;2.10;1.38;;;;;;;0.38;78.76;97585.69;4960541;28;20221;-38
2021/04/14 02:35:43;;;;;;;6.40;2.10;;;;;;;0.34;79.31;97586.56;4949298;28;20563;-37
2021/04/14 02:38:11;;;;;;;8.25;1.80;;;;;;;0.33;78.97;97582.31;4944298;28;20665;-38
2021/04/14 02:40:38;;;;;;;7.95;1.52;;;;;;;0.23;78.99;97580.66;4965919;28;20186;-38
2021/04/14 02:43:06;;;;;;;4.45;1.60;;;;;;;0.31;79.37;97581.47;4962715;28;20214;-38
2021/04/14 02:45:36;;;;;;;4.65;1.90;;;;;;;0.28;79.24;97572.94;4965175;28;20644;-43
2021/04/14 02:48:03;;;;;;;2.33;1.40;;;;;;;0.36;79.42;97572.06;4965118;28;20606;-37
2021/04/14 02:50:31;;;;;;;3.28;1.38;;;;;;;0.36;78.94;97574.59;4964679;28;20653;-44
2021/04/14 02:52:58;;;;;;;4.00;1.73;;;;;;;0.35;79.13;97565.25;4960736;28;20546;-43
2021/04/14 02:55:29;;;;;;;5.47;1.83;;;;;;;0.37;78.86;97566.06;4945494;28;20190;-38
2021/04/14 02:57:57;;;;;;;14.95;1.90;;;;;;;0.41;78.89;97565.19;4959711;28;20210;-43
2021/04/14 03:00:29;;;;;;;2.38;1.50;;;;;;;0.39;78.82;97561.78;4962963;28;20649;-44
2021/04/14 03:03:12;;;;;;;4.32;1.92;;;;;;;0.40;79.02;97573.75;4931992;28;20240;-38
2021/04/14 03:05:40;;;;;;;3.08;1.98;;;;;;;0.39;78.84;97566.91;4944572;28;20234;-38
2021/04/14 03:08:08;;;;;;;3.47;1.65;;;;;;;0.42;78.73;97556.66;4945662;28;20623;-44
2021/04/14 03:10:39;;;;;;;4.85;1.35;;;;;;;0.40;78.68;97557.53;4945953;28;20507;-38
2021/04/14 03:13:14;;;;;;;2.83;1.55;;;;;;;0.39;78.99;97560.94;4935464;28;20178;-43
2021/04/14 03:15:41;;;;;;;4.88;1.20;;;;;;;0.40;78.87;97555.81;4960793;28;20557;-38
2021/04/14 03:18:11;;;;;;;2.65;1.30;;;;;;;0.32;79.14;97555.00;4960928;28;20744;-38
2021/04/14 03:20:38;;;;;;;2.95;1.52;;;;;;;0.34;79.30;97558.41;4960899;28;20748;-37
2021/04/14 03:23:06;;;;;;;2.83;1.70;;;;;;;0.21;79.40;97548.25;4962461;28;20803;-37
2021/04/14 03:25:33;;;;;;;2.63;1.52;;;;;;;0.10;79.46;97532.97;4962629;28;20217;-46
2021/04/14 03:28:02;;;;;;;7.05;1.50;;;;;;;0.27;79.17;97551.63;4961252;28;20183;-44
2021/04/14 03:30:29;;;;;;;6.25;1.42;;;;;;;0.24;79.58;97546.53;4962693;28;20626;-43
2021/04/14 03:32:57;;;;;;;4.32;1.67;;;;;;;0.14;79.40;97519.31;4961707;28;20187;-44
2021/04/14 03:35:27;;;;;;;2.95;1.42;;;;;;;0.22;79.84;97540.56;4960864;28;20225;-38
2021/04/14 03:37:54;;;;;;;7.00;1.88;;;;;;;0.22;79.88;97539.75;4964095;28;20383;-44
2021/04/14 03:40:22;;;;;;;4.20;1.65;;;;;;;0.21;79.95;97549.13;4963108;28;20262;-37
2021/04/14 03:42:51;;;;;;;7.95;1.77;;;;;;;0.10;79.92;97538.09;4964962;28;20621;-44
2021/04/14 03:45:25;;;;;;;2.88;1.40;;;;;;;0.14;80.13;97542.34;4959922;28;20234;-44
2021/04/14 03:47:52;;;;;;;3.10;1.27;;;;;;;0.25;79.97;97540.53;4962892;28;20190;-44
2021/04/14 03:50:19;;;;;;;4.38;1.30;;;;;;;0.22;79.65;97535.47;4960230;28;20240;-38
2021/04/14 03:52:48;;;;;;;3.88;1.40;;;;;;;0.17;79.62;97544.88;4961521;28;20668;-38
2021/04/14 03:55:17;;;;;;;2.85;1.40;;;;;;;0.02;79.22;97508.31;4962661;28;20822;-45
2021/04/14 03:57:44;;;;;;;2.85;1.23;;;;;;;0.08;79.01;97534.69;4960737;28;20233;-44
2021/04/14 04:00:15;;;;;;;16.35;1.70;;;;;;;-0.14;79.35;97510.97;4961523;28;20222;-38
2021/04/14 04:02:42;;;;;;;4.55;1.42;;;;;;;-0.05;79.47;97543.28;4959021;28;20514;-37
2021/04/14 04:05:11;;;;;;;4.20;1.55;;;;;;;-0.03;79.45;97550.13;4949616;28;20534;-38
2021/04/14 04:07:38;;;;;;;1.95;1.20;;;;;;;-0.05;79.49;97550.97;4954569;28;21102;-44
2021/04/14 04:10:09;;;;;;;2.72;1.27;;;;;;;-0.18;79.88;97519.50;4978454;28;20524;-37
2021/04/14 04:12:36;;;;;;;3.35;1.60;;;;;;;0.02;79.70;97544.13;4980777;28;20560;-37
2021/04/14 04:15:11;;;;;;;5.97;1.73;;;;;;;0.03;79.92;97544.09;4981245;28;20221;-43
2021/04/14 04:17:39;;;;;;;20.92;2.25;;;;;;;0.01;79.84;97542.44;4956193;28;20678;-44
2021/04/14 04:20:15;;;;;;;4.28;1.58;;;;;;;-0.17;79.87;97531.47;4961621;28;20727;-43
2021/04/14 04:22:46;;;;;;;2.20;1.30;;;;;;;-0.20;80.39;97536.56;4984913;28;20174;-42
2021/04/14 04:25:16;;;;;;;8.15;1.40;;;;;;;-0.23;80.37;97528.94;4963997;28;20221;-38
2021/04/14 04:27:44;;;;;;;4.18;1.80;;;;;;;-0.15;80.32;97545.91;4984352;28;20638;-38
2021/04/14 04:30:12;;;;;;;6.07;2.05;;;;;;;-0.33;80.61;97530.69;4951412;28;20226;-37
2021/04/14 04:32:43;;;;;;;3.70;1.50;;;;;;;-0.21;80.54;97560.44;4950524;28;20213;-43
2021/04/14 04:35:12;;;;;;;2.03;1.67;;;;;;;-0.22;80.68;97551.09;4951020;28;20214;-43
2021/04/14 04:37:40;;;;;;;2.28;1.60;;;;;;;-0.22;80.51;97554.47;4953357;28;20186;-38
2021/04/14 04:40:08;;;;;;;3.50;2.10;;;;;;;-0.29;80.95;97555.38;4961816;28;20214;-43
2021/04/14 04:42:36;;;;;;;1.77;1.42;;;;;;;-0.29;80.47;97557.09;4983004;28;20173;-38
2021/04/14 04:45:04;;;;;;;5.22;2.45;;;;;;;-0.31;80.45;97556.25;4980162;28;20217;-44
2021/04/14 04:47:31;;;;;;;4.63;2.45;;;;;;;-0.39;80.89;97546.03;4963557;28;20185;-43
2021/04/14 04:49:58;;;;;;;4.70;1.65;;;;;;;-0.49;80.91;97546.09;4980441;28;20657;-44
2021/04/14 04:52:25;;;;;;;6.03;2.53;;;;;;;-0.43;80.73;97559.72;4978970;28;20256;-44
2021/04/14 04:54:52;;;;;;;5.47;2.15;;;;;;;-0.34;80.59;97572.44;4987259;28;20210;-43
2021/04/14 04:57:19;;;;;;;4.72;1.80;;;;;;;-0.38;80.53;97552.84;4963354;28;20244;-37
2021/04/14 04:59:47;;;;;;;2.50;1.65;;;;;;;-0.30;80.80;97566.44;4982229;28;20221;-38
2021/04/14 05:02:14;;;;;;;5.97;2.75;;;;;;;-0.26;80.57;97572.41;4956381;28;20644;-43
2021/04/14 05:04:44;;;;;;;1.92;1.52;;;;;;;-0.24;80.77;97573.25;4977713;28;20226;-44
2021/04/14 05:07:11;;;;;;;3.00;1.73;;;;;;;-0.27;80.83;97568.16;4983996;28;20207;-39
2021/04/14 05:09:39;;;;;;;4.07;2.00;;;;;;;-0.17;81.00;97572.38;4984021;28;20230;-38
2021/04/14 05:12:10;;;;;;;3.60;1.60;;;;;;;-0.09;81.30;97571.47;4985835;28;20220;-44
2021/04/14 05:14:37;;;;;;;3.15;1.83;;;;;;;-0.03;80.81;97572.31;4984573;28;20222;-38
2021/04/14 05:17:05;;;;;;;12.40;1.65;;;;;;;0.09;81.45;97567.09;4986440;28;20216;-43
2021/04/14 05:19:35;;;;;;;3.78;1.80;;;;;;;0.16;81.16;97568.75;4986181;28;20617;-37
2021/04/14 05:22:02;;;;;;;3.42;1.63;;;;;;;0.27;80.98;97567.00;4984765;28;20625;-38
2021/04/14 05:24:29;;;;;;;1.98;1.33;;;;;;;0.40;80.88;97573.75;4983815;28;20958;-38
2021/04/14 05:26:56;;;;;;;3.95;1.88;;;;;;;-0.02;80.97;97497.25;4983096;28;20193;-37
2021/04/14 05:29:25;;;;;;;4.43;1.85;;;;;;;0.48;80.79;97577.09;4984156;28;20225;-38
2021/04/14 05:31:52;;;;;;;4.70;1.50;;;;;;;0.57;80.70;97583.84;4984236;28;20185;-40
2021/04/14 05:34:20;;;;;;;5.25;2.08;;;;;;;0.52;80.77;97577.94;4980630;28;20229;-43
2021/04/14 05:36:47;;;;;;;3.45;1.88;;;;;;;0.57;80.17;97582.13;4983453;28;20252;-43
2021/04/14 05:39:14;;;;;;;15.25;6.15;;;;;;;0.61;79.02;97578.69;4984853;28;20220;-44
2021/04/14 05:41:46;;;;;;;8.20;4.75;;;;;;;0.50;77.98;97580.47;4982986;28;20197;-44
2021/04/14 05:44:13;;;;;;;21.75;5.82;;;;;;;0.41;77.41;97580.56;4984270;28;20577;-43
2021/04/14 05:46:40;;;;;;;8.45;4.43;;;;;;;0.61;77.45;97585.53;4980907;28;20557;-43
2021/04/14 05:49:10;;;;;;;8.68;3.60;;;;;;;0.59;77.89;97584.69;4983515;28;20657;-44
2021/04/14 05:51:39;;;;;;;9.55;3.78;;;;;;;0.80;77.73;97585.38;4979943;28;20585;-44
2021/04/14 05:54:06;;;;;;;8.18;3.92;;;;;;;1.01;77.26;97590.31;4983468;28;20758;-37
2021/04/14 05:56:33;;;;;;;9.77;3.45;;;;;;;0.79;76.64;97532.44;4984568;28;20198;-37
2021/04/14 05:59:01;;;;;;;6.65;3.28;;;;;;;1.20;76.71;97596.13;4985176;28;20287;-43
2021/04/14 06:01:33;;;;;;;5.78;3.10;;;;;;;1.40;76.51;97589.91;4984327;28;20717;-43
2021/04/14 06:04:01;;;;;;;4.80;2.60;;;;;;;1.54;76.06;97589.78;4985692;28;20218;-43
2021/04/14 06:06:28;;;;;;;5.10;2.47;;;;;;;1.62;75.43;97596.50;4986404;28;20521;-44
2021/04/14 06:08:56;;;;;;;3.97;2.22;;;;;;;1.53;75.68;97591.50;4982414;28;20228;-37
2021/04/14 06:11:23;;;;;;;8.18;2.08;;;;;;;1.63;76.05;97593.06;4989193;28;20703;-37
2021/04/14 06:13:50;;;;;;;3.30;2.53;;;;;;;1.72;75.57;97593.00;4984292;28;20594;-37
2021/04/14 06:16:20;;;;;;;9.70;3.25;;;;;;;1.91;75.46;97589.31;4981936;28;20216;-37
2021/04/14 06:18:47;;;;;;;4.85;2.38;;;;;;;2.10;74.65;97589.94;4974626;28;20996;-44
2021/04/14 06:21:17;;;;;;;4.18;2.60;;;;;;;2.24;73.93;97588.03;4983788;28;20522;-37
2021/04/14 06:23:46;;;;;;;6.68;2.58;;;;;;;2.44;73.73;97596.31;5057238;23;20677;-37
2021/04/14 06:26:25;;;;;;;9.48;3.33;;;;;;;2.63;73.46;97593.44;4974566;28;20788;-44
2021/04/14 06:28:54;;;;;;;11.98;4.65;;;;;;;2.77;72.88;97594.09;4936169;28;20319;-38
2021/04/14 06:31:22;;;;;;;8.70;3.53;;;;;;;2.75;72.53;97593.25;4915592;28;20204;-43
2021/04/14 06:33:51;;;;;;;9.07;3.47;;;;;;;2.94;72.54;97596.38;4956635;28;20576;-42
2021/04/14 06:36:21;;;;;;;9.35;3.20;;;;;;;3.17;72.10;97600.25;4969251;28;20801;-44
2021/04/14 06:38:49;;;;;;;9.82;4.10;;;;;;;3.24;71.75;97598.44;4956187;28;20223;-37
2021/04/14 06:41:52;;;;;;;7.28;2.10;;;;;;;3.53;71.03;97589.31;4967904;28;20798;-47
2021/04/14 06:44:31;;;;;;;29.40;13.13;;;;;;;3.52;70.65;97587.63;4968094;28;20209;-44
2021/04/14 06:46:58;;;;;;;17.65;7.72;;;;;;;3.82;70.60;97593.91;4969718;28;20592;-44
2021/04/14 06:49:35;;;;;;;6.45;2.90;;;;;;;4.17;69.23;97585.44;4973602;28;20691;-44
2021/04/14 06:52:28;;;;;;;8.57;1.95;;;;;;;4.52;67.84;97588.06;4946104;28;20301;-42
2021/04/14 06:55:02;;;;;;;6.07;3.05;;;;;;;4.41;67.57;97556.56;4974479;28;20280;-37
2021/04/14 06:57:33;;;;;;;14.85;3.35;;;;;;;5.20;66.76;97586.44;4973126;28;20670;-37
2021/04/14 07:00:05;;;;;;;5.07;2.25;;;;;;;5.44;64.93;97593.56;4973463;28;20548;-37
2021/04/14 07:02:38;;;;;;;5.57;2.08;;;;;;;5.83;63.30;97589.97;4973946;28;20810;-43
2021/04/14 07:05:09;;;;;;;5.10;2.00;;;;;;;6.03;62.82;97582.50;4955126;28;20746;-38
2021/04/14 07:07:39;;;;;;;11.98;3.17;;;;;;;6.54;62.66;97584.38;4975424;28;20633;-44
2021/04/14 07:10:19;;;;;;;6.20;2.80;;;;;;;7.04;61.39;97593.16;4970862;28;20740;-44
2021/04/14 07:13:17;;;;;;;11.35;3.40;;;;;;;7.22;60.60;97587.41;4986919;22;20622;31
2021/04/14 07:15:56;;;;;;;10.80;3.15;;;;;;;6.54;59.63;97402.50;4897455;29;20644;-96
2021/04/14 07:18:46;;;;;;;3.88;1.50;;;;;;;8.14;57.60;97531.38;4897945;29;20285;-95
2021/04/14 07:21:23;;;;;;;4.40;1.30;;;;;;;8.70;54.91;97481.63;4903837;29;20519;-96
2021/04/14 07:23:57;;;;;;;5.03;2.03;;;;;;;8.97;54.49;97497.81;4916050;29;20469;-95
2021/04/14 07:26:29;;;;;;;7.20;2.10;;;;;;;9.63;52.57;97476.75;4896578;29;20498;-96
2021/04/14 07:29:17;;;;;;;6.93;2.10;;;;;;;9.16;52.19;97309.16;4911392;29;20457;-96
2021/04/14 07:31:53;;;;;;;6.63;2.00;;;;;;;11.58;50.77;97566.34;4928598;23;20516;-34
2021/04/14 07:34:30;;;;;;;6.10;1.60;;;;;;;11.99;49.11;97550.25;4890797;29;20473;-41
2021/04/14 07:37:01;;;;;;;4.90;1.37;;;;;;;12.58;48.18;97558.34;4888144;29;20765;-34
2021/04/14 07:39:32;;;;;;;5.20;1.53;;;;;;;13.12;47.56;97563.19;4886562;29;20496;-37
2021/04/14 07:42:07;;;;;;;4.60;1.30;;;;;;;13.69;46.85;97558.06;4888728;29;20934;-36
2021/04/14 07:44:43;;;;;;;6.53;2.30;;;;;;;13.70;45.98;97566.75;4887178;29;20456;-36
2021/04/14 07:47:20;;;;;;;7.50;1.67;;;;;;;13.90;45.14;97563.78;4900467;29;20467;-36
2021/04/14 07:49:50;;;;;;;6.40;1.80;;;;;;;13.24;46.58;97524.13;4902258;29;20527;-42
2021/04/14 07:52:26;;;;;;;5.33;1.90;;;;;;;13.58;46.15;97557.00;4888284;29;20471;-37
2021/04/14 07:54:55;;;;;;;5.70;1.60;;;;;;;13.58;45.74;97564.84;4884527;29;21090;-37
2021/04/14 07:57:28;;;;;;;6.80;1.87;;;;;;;13.45;45.87;97558.63;4886635;29;20436;-43
2021/04/14 07:59:55;;;;;;;3.90;1.57;;;;;;;13.31;45.49;97550.75;4881469;29;20853;-43
2021/04/14 08:02:31;;;;;;;8.03;4.07;;;;;;;13.15;45.74;97560.38;4886952;29;20435;-43
2021/04/14 08:05:11;;;;;;;6.57;1.70;;;;;;;13.02;46.52;97559.38;4884753;29;20469;-43
2021/04/14 08:07:42;;;;;;;9.90;1.93;;;;;;;12.83;47.37;97558.72;4883892;29;20966;-45
2021/04/14 08:10:13;;;;;;;4.80;1.37;;;;;;;12.60;46.78;97561.72;4884387;29;20472;-44
2021/04/14 08:12:53;;;;;;;10.40;2.00;;;;;;;12.04;46.55;97550.88;4884956;29;20448;-43
2021/04/14 08:15:31;;;;;;;4.80;1.57;;;;;;;11.64;48.34;97546.00;4883760;29;20978;-42
2021/04/14 08:18:13;;;;;;;5.30;1.70;;;;;;;11.63;48.20;97549.53;4875392;29;20441;-42
2021/04/14 08:20:42;;;;;;;9.07;1.40;;;;;;;11.58;49.14;97546.34;4887403;29;20446;-36
2021/04/14 08:23:12;;;;;;;8.40;2.00;;;;;;;11.49;48.26;97543.31;4889759;29;20455;-42
2021/04/14 08:25:44;;;;;;;17.03;2.47;;;;;;;11.00;50.22;97544.91;4889439;29;20956;-36
2021/04/14 08:28:12;;;;;;;7.57;1.90;;;;;;;11.09;50.73;97533.16;4885762;29;20838;-36
2021/04/14 08:30:39;;;;;;;20.27;9.50;;;;;;;11.26;49.59;97544.44;4888977;29;20492;-43
2021/04/14 08:33:20;;;;;;;7.87;2.17;;;;;;;10.84;49.41;97546.53;4887531;29;21002;-42
2021/04/14 08:35:53;;;;;;;5.57;1.93;;;;;;;10.79;50.07;97548.53;4885539;29;20496;-36
2021/04/14 08:38:30;;;;;;;8.60;1.30;;;;;;;10.92;50.99;97549.63;4884283;29;21109;-43
2021/04/14 08:41:02;;;;;;;9.43;1.60;;;;;;;11.18;51.33;97544.00;4903176;29;20779;-36
2021/04/14 08:43:40;;;;;;;7.43;2.00;;;;;;;11.30;49.75;97512.13;4881887;29;20981;-43
2021/04/14 08:46:10;;;;;;;18.37;1.80;;;;;;;11.64;49.91;97532.16;4898472;29;20758;-36
2021/04/14 08:48:39;;;;;;;4.17;1.37;;;;;;;11.90;49.35;97535.09;4889788;29;20867;-44
2021/04/14 08:51:07;;;;;;;8.50;2.00;;;;;;;11.91;49.49;97539.38;4895438;29;20441;-42
2021/04/14 08:53:38;;;;;;;7.43;2.00;;;;;;;12.08;48.60;97544.56;4888111;29;20464;-36
2021/04/14 08:56:06;;;;;;;68.20;5.20;;;;;;;11.97;49.66;97536.47;4888607;29;20847;-43
2021/04/14 08:58:34;;;;;;;10.90;2.17;;;;;;;12.20;49.26;97536.09;4887446;29;20450;-36
2021/04/14 09:01:02;;;;;;;6.20;2.20;;;;;;;12.31;49.70;97535.50;4888369;29;20763;-43
2021/04/14 09:03:33;;;;;;;5.33;2.03;;;;;;;12.48;49.89;97535.44;4889137;29;20473;-36
2021/04/14 09:06:01;;;;;;;14.07;2.47;;;;;;;12.87;48.64;97534.94;4887888;29;20444;-42
2021/04/14 09:08:31;;;;;;;5.00;2.40;;;;;;;12.93;48.26;97528.53;4889744;29;20482;-36
2021/04/14 09:11:00;;;;;;;6.27;2.17;;;;;;;13.01;46.36;97531.56;4887826;29;20962;-41
2021/04/14 09:14:00;;;;;;;3.73;1.40;;;;;;;13.23;47.29;97519.81;4879634;29;20506;-37
2021/04/14 09:16:31;;;;;;;9.73;2.10;;;;;;;13.40;45.49;97524.91;4889981;29;20923;-37
2021/04/14 09:19:12;;;;;;;14.53;3.57;;;;;;;13.40;46.42;97516.19;4887344;29;20491;-37
2021/04/14 09:21:49;;;;;;;5.10;1.73;;;;;;;13.22;46.18;97525.13;4874264;29;20840;-43
2021/04/14 09:24:34;;;;;;;6.40;1.93;;;;;;;13.47;46.35;97518.38;4888060;29;20461;-39
2021/04/14 09:27:05;;;;;;;7.10;2.20;;;;;;;13.31;44.52;97524.59;4887390;29;20455;-39
2021/04/14 09:29:48;;;;;;;13.07;2.77;;;;;;;13.36;47.38;97522.56;4887662;29;20640;-38
2021/04/14 09:32:16;;;;;;;8.03;1.80;;;;;;;13.64;47.12;97513.00;4889009;29;20920;-46
2021/04/14 09:34:46;;;;;;;11.43;2.80;;;;;;;14.04;45.28;97514.06;4886074;29;20991;-38
2021/04/14 09:37:33;;;;;;;13.23;2.20;;;;;;;14.29;44.95;97512.50;4889501;29;20471;-45
2021/04/14 09:40:02;;;;;;;6.57;2.17;;;;;;;14.10;45.95;97511.94;4890318;29;20567;-39
2021/04/14 09:42:35;;;;;;;4.73;1.80;;;;;;;13.86;43.52;97512.56;4889788;29;21202;-45
2021/04/14 09:45:31;;;;;;;16.27;2.30;;;;;;;12.40;46.01;97507.16;4887188;29;20536;-39
2021/04/14 09:48:02;;;;;;;6.97;2.13;;;;;;;13.49;47.41;97498.19;4884599;29;20514;-39
2021/04/14 09:50:56;;;;;;;9.23;1.60;;;;;;;14.06;43.63;97504.31;4888437;29;20511;-45
2021/04/14 09:53:37;;;;;;;5.60;2.50;;;;;;;14.32;44.74;97499.22;4906660;28;20486;-45
2021/04/14 09:56:10;;;;;;;5.67;2.00;;;;;;;14.33;44.66;97492.19;4906110;29;21057;-45
2021/04/14 09:58:46;;;;;;;153.63;84.37;;;;;;;14.17;43.96;97488.81;4907389;29;20463;-39
2021/04/14 10:01:20;;;;;;;34.43;17.73;;;;;;;14.92;44.80;97494.47;4907707;29;20755;-39
2021/04/14 10:03:48;;;;;;;7.43;2.17;;;;;;;15.29;42.78;97481.47;4905664;29;20836;-45
2021/04/14 10:06:20;;;;;;;12.43;1.80;;;;;;;15.41;41.77;97480.69;4905301;29;20435;-39
2021/04/14 10:08:49;;;;;;;11.07;2.00;;;;;;;15.33;41.42;97476.91;4904245;28;20961;-45
2021/04/14 10:11:25;;;;;;;5.90;2.10;;;;;;;14.92;41.63;97473.50;4906950;29;20502;-45
2021/04/14 10:13:51;;;;;;;6.07;2.00;;;;;;;14.55;41.56;97472.41;4906291;29;20947;-46
2021/04/14 10:16:23;;;;;;;4.43;2.00;;;;;;;14.25;42.92;97481.34;4905802;29;21012;-45
2021/04/14 10:19:00;;;;;;;6.07;1.63;;;;;;;13.84;42.89;97477.78;4907900;29;20949;-45
2021/04/14 10:21:29;;;;;;;3.33;1.87;;;;;;;13.43;42.83;97471.59;4908111;29;20843;-46
2021/04/14 10:24:06;;;;;;;6.30;1.73;;;;;;;12.76;44.22;97473.75;4904510;29;20799;-45
2021/04/14 10:26:36;;;;;;;6.27;2.03;;;;;;;12.72;44.39;97467.03;4908340;29;21085;-46
2021/04/14 10:29:08;;;;;;;6.97;1.70;;;;;;;12.55;42.70;97464.53;4907705;29;20471;-39
2021/04/14 10:31:37;;;;;;;4.63;1.50;;;;;;;12.48;43.80;97468.41;4908193;29;20433;-45
2021/04/14 10:34:11;;;;;;;3.70;1.80;;;;;;;12.39;43.20;97468.06;4891322;29;20916;-39
2021/04/14 10:36:41;;;;;;;3.47;1.70;;;;;;;12.37;44.27;97465.53;4907364;29;20892;-46
2021/04/14 10:39:14;;;;;;;14.50;1.70;;;;;;;12.50;43.76;97463.09;4905706;29;20525;-39
2021/04/14 10:41:42;;;;;;;7.23;1.80;;;;;;;12.42;44.14;97463.50;4908877;29;20432;-39
2021/04/14 10:44:17;;;;;;;3.83;1.70;;;;;;;12.25;44.22;97461.00;4905755;29;20949;-45
2021/04/14 10:46:46;;;;;;;3.13;1.30;;;;;;;11.86;45.17;97457.06;4910767;29;20459;-46
2021/04/14 10:49:22;;;;;;;6.20;1.83;;;;;;;11.60;46.45;97455.84;4904201;28;20470;-45
2021/04/14 10:51:53;;;;;;;30.43;15.47;;;;;;;11.49;46.96;97458.13;4908168;29;20981;-39
2021/04/14 10:54:24;;;;;;;7.00;3.13;;;;;;;11.46;47.63;97462.63;4906129;29;20499;-39
2021/04/14 10:57:02;;;;;;;3.87;1.57;;;;;;;11.25;49.13;97454.16;4907795;29;21199;-39
2021/04/14 10:59:34;;;;;;;3.50;1.90;;;;;;;11.21;50.44;97455.22;4907567;28;20845;-39
2021/04/14 11:02:10;;;;;;;5.57;3.13;;;;;;;10.96;51.41;97446.97;4905197;29;20450;-45
2021/04/14 11:04:40;;;;;;;3.87;1.70;;;;;;;10.70;51.20;97457.81;4904046;28;20517;-45
2021/04/14 11:07:10;;;;;;;7.90;2.10;;;;;;;10.27;51.35;97457.34;4907327;29;20568;-45
2021/04/14 11:09:41;;;;;;;6.30;1.73;;;;;;;10.14;52.41;97446.69;4907130;29;20442;-45
2021/04/14 11:12:12;;;;;;;6.73;2.30;;;;;;;9.58;52.88;97409.38;4905960;29;20443;-45
2021/04/14 11:14:44;;;;;;;5.63;1.97;;;;;;;9.49;52.12;97438.38;4905633;29;20902;-45
2021/04/14 11:17:18;;;;;;;3.43;2.00;;;;;;;9.51;53.20;97436.56;4906893;29;20557;-39
2021/04/14 11:19:54;;;;;;;7.30;2.13;;;;;;;9.46;53.35;97432.47;4903255;28;21196;-45
2021/04/14 11:22:21;;;;;;;12.60;4.47;;;;;;;9.62;54.47;97431.75;4905775;29;20448;-40
2021/04/14 11:24:50;;;;;;;12.03;4.40;;;;;;;9.56;53.50;97434.59;4907130;29;20460;-45
2021/04/14 11:27:21;;;;;;;7.40;2.13;;;;;;;9.04;54.14;97375.47;4905521;29;21078;-37
2021/04/14 11:29:48;;;;;;;6.23;2.33;;;;;;;8.92;55.24;97430.50;4907757;29;20470;-37
2021/04/14 11:32:19;;;;;;;4.90;2.03;;;;;;;8.69;55.14;97428.03;4905662;29;20766;-43
2021/04/14 11:34:58;;;;;;;9.70;2.10;;;;;;;8.68;54.77;97428.94;4903567;28;20483;-44
2021/04/14 11:37:43;;;;;;;5.83;2.07;;;;;;;8.86;54.48;97427.34;4906637;29;20821;-43
2021/04/14 11:40:36;;;;;;;5.53;1.80;;;;;;;9.38;54.77;97432.81;4907382;28;20942;-37
2021/04/14 11:43:06;;;;;;;10.07;2.40;;;;;;;9.44;52.56;97429.94;4906258;29;21005;-37
2021/04/14 11:45:35;;;;;;;7.40;1.90;;;;;;;9.76;52.65;97429.38;4906821;29;20902;-43
2021/04/14 11:48:10;;;;;;;13.77;2.47;;;;;;;9.68;54.29;97434.06;4905388;28;20984;-37
2021/04/14 11:50:39;;;;;;;15.63;2.00;;;;;;;9.33;57.77;97439.97;4906612;29;20851;-43
2021/04/14 11:53:21;;;;;;;6.80;1.90;;;;;;;8.92;59.05;97411.50;4906781;28;20479;-43
2021/04/14 11:55:49;;;;;;;57.13;4.57;;;;;;;8.80;61.74;97457.00;4907800;29;20920;-43